Time;durP1;ratioP1;P1;durP2;ratioP2;P2;SDS_P1;SDS_P2;PMS_P1;PMS_P2;Temp;Humidity;BMP_temperature;BMP_pressure;BME280_temperature;BME280_humidity;BME280_pressure;Samples;Min_cycle;Max_cycle;Signal;HPM_P1;HPM_P2
2022/04/15 00:00:40;;;;;;;33.40;22.10;;;;;;;-145.18;100.00;46633.06;5092968;28;20032;-78
2022/04/15 00:03:06;;;;;;;30.87;18.97;;;;;;;-145.18;100.00;46660.41;5074550;28;20074;-79
2022/04/15 00:05:40;;;;;;;46.60;27.60;;;;;;;-145.18;100.00;46631.09;5092528;28;20046;-78
2022/04/15 00:08:10;;;;;;;53.67;30.20;;;;;;;-145.18;100.00;46635.00;5093036;28;20257;-79
2022/04/15 00:10:39;;;;;;;62.40;33.80;;;;;;;-145.18;100.00;46633.06;5092837;28;20299;-78
2022/04/15 00:13:06;;;;;;;68.47;39.37;;;;;;;-145.18;100.00;46660.41;5092627;28;20308;-78
2022/04/15 00:15:33;;;;;;;59.83;36.37;;;;;;;-145.18;100.00;46660.41;5092624;28;20446;-78
2022/04/15 00:17:59;;;;;;;75.93;41.50;;;;;;;-145.18;100.00;46635.00;5091807;28;20277;-78
2022/04/15 00:20:26;;;;;;;46.53;28.63;;;;;;;-145.18;100.00;46633.06;5077941;28;20270;-78
2022/04/15 00:22:52;;;;;;;63.63;37.40;;;;;;;-145.18;100.00;46633.06;5071281;28;20883;-78
2022/04/15 00:25:19;;;;;;;46.03;29.63;;;;;;;-145.18;100.00;46633.06;5072724;28;20269;-78
2022/04/15 00:27:45;;;;;;;32.93;21.10;;;;;;;-145.18;100.00;46631.09;5054108;28;20360;-78
2022/04/15 00:30:12;;;;;;;38.30;24.67;;;;;;;-145.18;100.00;46660.41;5072268;28;20645;-78
2022/04/15 00:32:38;;;;;;;49.57;30.20;;;;;;;-145.18;100.00;46660.41;5072029;28;20606;-78
2022/04/15 00:35:04;;;;;;;77.17;42.40;;;;;;;-145.18;100.00;46660.41;5071881;28;20323;-78
2022/04/15 00:37:31;;;;;;;37.87;25.60;;;;;;;-145.18;100.00;46660.41;5071572;28;20275;-78
2022/04/15 00:39:57;;;;;;;35.97;23.33;;;;;;;-145.18;100.00;46660.41;5054730;28;20269;-78
2022/04/15 00:42:23;;;;;;;60.13;34.87;;;;;;;-145.18;100.00;46660.41;5053792;28;20304;-78
2022/04/15 00:44:53;;;;;;;63.57;38.10;;;;;;;-145.18;100.00;46633.06;5072381;28;20274;-78
2022/04/15 00:47:35;;;;;;;63.93;37.23;;;;;;;-145.18;100.00;46660.41;5072025;28;20032;-78
2022/04/15 00:50:01;;;;;;;57.57;35.37;;;;;;;-145.18;100.00;46660.41;5072216;28;20318;-78
2022/04/15 00:52:33;;;;;;;64.27;37.33;;;;;;;-145.18;100.00;46660.41;5071683;28;20281;-77
2022/04/15 00:55:02;;;;;;;57.30;35.00;;;;;;;-145.18;100.00;46660.41;5072452;28;20147;-78
2022/04/15 00:57:30;;;;;;;57.57;36.20;;;;;;;-145.18;100.00;46660.41;5071475;28;20270;-78
2022/04/15 00:59:58;;;;;;;60.03;35.63;;;;;;;-145.18;100.00;46660.41;5071804;28;20656;-79
2022/04/15 01:02:25;;;;;;;57.60;35.43;;;;;;;-145.18;100.00;46660.41;5053373;28;20265;-79
2022/04/15 01:04:52;;;;;;;66.77;39.30;;;;;;;-145.18;100.00;46660.41;5071711;28;20281;-79
2022/04/15 01:07:22;;;;;;;70.17;39.57;;;;;;;-145.18;100.00;46660.41;5071227;28;20360;-78
2022/04/15 01:09:50;;;;;;;56.80;33.83;;;;;;;-145.18;100.00;46660.41;5071688;28;20249;-78
2022/04/15 01:12:17;;;;;;;62.40;36.50;;;;;;;-145.18;100.00;46660.41;5071565;28;20269;-78
2022/04/15 01:14:43;;;;;;;55.83;35.53;;;;;;;-145.18;100.00;46660.41;5071453;28;20320;-78
2022/04/15 01:17:09;;;;;;;51.57;30.83;;;;;;;-145.18;100.00;46660.41;5071367;28;20297;-77
2022/04/15 01:19:34;;;;;;;69.97;38.70;;;;;;;-145.18;100.00;46660.41;5071359;28;20032;-78
2022/04/15 01:22:02;;;;;;;59.60;36.07;;;;;;;-145.18;100.00;46660.41;5071292;28;20078;-78
2022/04/15 01:24:31;;;;;;;57.70;35.00;;;;;;;-145.18;100.00;46660.41;5071319;28;20477;-78
2022/04/15 01:26:57;;;;;;;58.30;33.33;;;;;;;-145.18;100.00;46660.41;5053211;28;20301;-78
2022/04/15 01:29:26;;;;;;;49.33;29.10;;;;;;;-145.18;100.00;46660.41;5070181;28;20304;-78
2022/04/15 01:31:52;;;;;;;38.97;26.83;;;;;;;-145.18;100.00;46660.41;5071039;28;20032;-78
2022/04/15 01:34:17;;;;;;;57.67;32.80;;;;;;;-145.18;100.00;46633.06;5070302;28;20328;-78
2022/04/15 01:36:43;;;;;;;63.07;37.37;;;;;;;-145.18;100.00;46660.41;5070380;28;20701;-78
2022/04/15 01:39:10;;;;;;;74.67;38.93;;;;;;;-145.18;100.00;46633.06;5071384;28;20058;-78
2022/04/15 01:41:39;;;;;;;65.10;39.27;;;;;;;-145.18;100.00;46633.06;5070584;28;20550;-78
2022/04/15 01:44:10;;;;;;;56.13;34.93;;;;;;;-145.18;100.00;46635.00;5070629;28;20320;-78
2022/04/15 01:46:36;;;;;;;58.23;35.03;;;;;;;-145.18;100.00;46633.06;5069833;28;20745;-77
2022/04/15 01:49:01;;;;;;;63.13;35.13;;;;;;;-145.18;100.00;46660.41;5071165;28;20280;-77
2022/04/15 01:51:26;;;;;;;32.10;19.83;;;;;;;-145.18;100.00;46660.41;5070691;28;20032;-79
2022/04/15 01:53:53;;;;;;;48.67;22.07;;;;;;;-145.18;100.00;46633.06;5070237;28;20079;-77
2022/04/15 01:56:18;;;;;;;64.87;34.20;;;;;;;-145.18;100.00;46633.06;5070756;28;20052;-77
2022/04/15 01:58:44;;;;;;;50.33;30.70;;;;;;;-145.18;100.00;46660.41;5070091;28;20309;-77
2022/04/15 02:03:41;;;;;;;50.43;29.23;;;;;;;-145.18;100.00;46635.00;5034231;23;20038;-79
2022/04/15 02:06:07;;;;;;;291.70;30.27;;;;;;;-145.18;100.00;46660.41;5038670;28;20817;-79
2022/04/15 02:08:32;;;;;;;36.23;24.70;;;;;;;-145.18;100.00;46660.41;5030224;28;20025;-79
2022/04/15 02:10:57;;;;;;;57.40;21.47;;;;;;;-145.18;100.00;46660.41;5030816;28;20044;-79
2022/04/15 02:13:23;;;;;;;51.50;29.13;;;;;;;-145.18;100.00;46660.41;5030100;28;20033;-78
2022/04/15 02:15:48;;;;;;;45.33;28.17;;;;;;;-145.18;100.00;46660.41;5030800;28;20029;-78
2022/04/15 02:18:13;;;;;;;71.67;28.90;;;;;;;-145.18;100.00;46660.41;5030613;28;20123;-78
2022/04/15 02:20:40;;;;;;;75.50;32.97;;;;;;;-145.18;100.00;46660.41;5030841;28;20451;-78
2022/04/15 02:23:05;;;;;;;138.80;32.33;;;;;;;-145.18;100.00;46633.06;5030500;28;20060;-78
2022/04/15 02:25:30;;;;;;;136.80;33.73;;;;;;;-145.18;100.00;46660.41;5030680;28;20279;-78
2022/04/15 02:27:56;;;;;;;231.00;35.07;;;;;;;-145.18;100.00;46660.41;5029970;28;20041;-79
2022/04/15 02:30:21;;;;;;;243.70;34.50;;;;;;;-145.18;100.00;46660.41;5030680;28;20033;-78
2022/04/15 02:32:46;;;;;;;196.27;31.60;;;;;;;-145.18;100.00;46660.41;5030125;28;20044;-78
2022/04/15 02:35:12;;;;;;;401.77;32.37;;;;;;;-145.18;100.00;46660.41;5030691;28;20535;-78
2022/04/15 02:37:37;;;;;;;259.90;29.07;;;;;;;-145.18;100.00;46660.41;5029801;28;20037;-77
2022/04/15 02:40:03;;;;;;;156.40;26.67;;;;;;;-145.18;100.00;46660.41;5030897;28;20067;-78
2022/04/15 02:42:29;;;;;;;141.73;24.33;;;;;;;-145.18;100.00;46660.41;5030532;28;20087;-78
2022/04/15 02:44:54;;;;;;;208.60;27.73;;;;;;;-145.18;100.00;46660.41;5029192;28;20871;-78
2022/04/15 02:47:20;;;;;;;148.87;27.03;;;;;;;-145.18;100.00;46660.41;5030354;28;20044;-78
2022/04/15 02:49:45;;;;;;;225.23;31.50;;;;;;;-145.18;100.00;46660.41;5030399;28;20153;-78
2022/04/15 02:52:11;;;;;;;119.83;31.07;;;;;;;-145.18;100.00;46660.41;5030122;28;20048;-77
2022/04/15 02:54:36;;;;;;;262.37;34.63;;;;;;;-145.18;100.00;46660.41;5030384;28;20044;-78
2022/04/15 02:57:02;;;;;;;159.47;33.00;;;;;;;-145.18;100.00;46660.41;5030193;28;20041;-78
2022/04/15 02:59:27;;;;;;;196.07;33.93;;;;;;;-145.18;100.00;46660.41;5030574;28;20040;-77
2022/04/15 03:01:52;;;;;;;82.83;31.10;;;;;;;-145.18;100.00;46660.41;5029520;28;20085;-77
2022/04/15 03:04:18;;;;;;;126.47;31.37;;;;;;;-145.18;100.00;46660.41;5030580;28;20112;-78
2022/04/15 03:06:43;;;;;;;83.87;31.90;;;;;;;-145.18;100.00;46660.41;5029753;28;20041;-78
2022/04/15 03:09:09;;;;;;;95.40;29.33;;;;;;;-145.18;100.00;46660.41;5030598;28;20133;-78
2022/04/15 03:11:37;;;;;;;164.20;29.83;;;;;;;-145.18;100.00;46660.41;5030101;28;20033;-77
2022/04/15 03:14:02;;;;;;;95.13;29.50;;;;;;;-145.18;100.00;46660.41;5030224;28;20087;-78
2022/04/15 03:16:28;;;;;;;180.90;30.17;;;;;;;-145.18;100.00;46660.41;5030393;28;20278;-78
2022/04/15 03:18:54;;;;;;;65.43;29.47;;;;;;;-145.18;100.00;46660.41;5029953;28;20549;-77
2022/04/15 03:21:19;;;;;;;97.63;30.23;;;;;;;-145.18;100.00;46660.41;5029848;28;20041;-77
2022/04/15 03:23:44;;;;;;;162.30;32.33;;;;;;;-145.18;100.00;46660.41;5029652;28;20037;-77
2022/04/15 03:26:10;;;;;;;147.93;33.60;;;;;;;-145.18;100.00;46660.41;5030319;28;20122;-77
2022/04/15 03:28:37;;;;;;;180.30;35.47;;;;;;;-145.18;100.00;46660.41;5029738;28;20045;-77
2022/04/15 03:31:02;;;;;;;165.47;37.97;;;;;;;-145.18;100.00;46660.41;5030596;28;20061;-77
2022/04/15 03:33:28;;;;;;;209.67;36.93;;;;;;;-145.18;100.00;46658.44;5029558;28;21016;-77
2022/04/15 03:35:54;;;;;;;123.13;35.20;;;;;;;-145.18;100.00;46660.41;5030073;28;20048;-77
2022/04/15 03:38:19;;;;;;;81.83;35.50;;;;;;;-145.18;100.00;46660.41;5029767;28;20639;-77
2022/04/15 03:40:44;;;;;;;97.50;34.37;;;;;;;-145.18;100.00;46660.41;5029969;28;20040;-77
2022/04/15 03:43:10;;;;;;;97.97;31.13;;;;;;;-145.18;100.00;46660.41;5029636;28;20048;-77
2022/04/15 03:45:35;;;;;;;101.97;32.13;;;;;;;-145.18;100.00;46660.41;5030010;28;20485;-78
2022/04/15 03:48:01;;;;;;;147.17;31.03;;;;;;;-145.18;100.00;46660.41;5029359;28;20610;-77
2022/04/15 03:50:26;;;;;;;97.10;33.73;;;;;;;-145.18;100.00;46660.41;5029758;28;20573;-78
2022/04/15 03:52:53;;;;;;;95.93;31.93;;;;;;;-145.18;100.00;46660.41;5029274;28;20037;-78
2022/04/15 03:55:21;;;;;;;156.67;34.93;;;;;;;-145.18;100.00;46660.41;5029984;28;20029;-77
2022/04/15 03:57:48;;;;;;;112.27;34.40;;;;;;;-145.18;100.00;46660.41;5031377;28;20258;-77
2022/04/15 04:00:23;;;;;;;121.40;27.13;;;;;;;-145.18;100.00;46660.41;5033337;28;20259;-77
2022/04/15 04:02:52;;;;;;;96.45;25.45;;;;;;;-145.18;100.00;46660.41;5032360;28;20290;-77
2022/04/15 04:05:18;;;;;;;127.33;25.87;;;;;;;-145.18;100.00;46660.41;5033526;28;20038;-78
2022/04/15 04:07:44;;;;;;;80.73;23.70;;;;;;;-145.18;100.00;46660.41;5032050;28;20334;-78
2022/04/15 04:10:12;;;;;;;49.37;23.13;;;;;;;-145.18;100.00;46660.41;5032709;28;20275;-78
2022/04/15 04:12:37;;;;;;;52.80;24.83;;;;;;;-145.18;100.00;46660.41;5031889;28;20267;-78
2022/04/15 04:15:05;;;;;;;78.93;26.47;;;;;;;-145.18;100.00;46660.41;5032467;28;20425;-78
2022/04/15 04:17:30;;;;;;;59.97;23.80;;;;;;;-145.18;100.00;46660.41;5032184;28;20094;-78
2022/04/15 04:19:56;;;;;;;59.63;24.57;;;;;;;-145.18;100.00;46660.41;5016911;28;20758;-78
2022/04/15 04:22:26;;;;;;;45.80;23.13;;;;;;;-145.18;100.00;46660.41;5031717;28;20159;-78
2022/04/15 04:24:51;;;;;;;54.90;22.33;;;;;;;-145.18;100.00;46660.41;5048868;28;20040;-77
2022/04/15 04:27:17;;;;;;;40.73;22.13;;;;;;;-145.18;100.00;46660.41;5067882;28;20776;-77
2022/04/15 04:29:42;;;;;;;41.60;21.47;;;;;;;-145.18;100.00;46660.41;5068596;28;20162;-76
2022/04/15 04:32:08;;;;;;;40.77;23.50;;;;;;;-145.18;100.00;46660.41;5068157;28;20044;-78
2022/04/15 04:34:33;;;;;;;43.30;22.13;;;;;;;-145.18;100.00;46660.41;5062930;28;20035;-77
2022/04/15 04:36:59;;;;;;;33.60;19.47;;;;;;;-145.18;100.00;46660.41;5050483;28;20032;-77
2022/04/15 04:39:26;;;;;;;38.47;19.07;;;;;;;-145.18;100.00;46660.41;5041428;28;20028;-78
2022/04/15 04:41:51;;;;;;;35.87;20.43;;;;;;;-145.18;100.00;46660.41;5064838;28;20082;-77
2022/04/15 04:44:17;;;;;;;34.00;19.63;;;;;;;-145.18;100.00;46660.41;5058850;28;20310;-76
2022/04/15 04:46:43;;;;;;;38.77;20.33;;;;;;;-145.18;100.00;46625.22;5035691;28;20455;-77
2022/04/15 04:49:08;;;;;;;34.67;19.50;;;;;;;-145.18;100.00;46660.41;5049963;28;20035;-76
2022/04/15 04:51:34;;;;;;;35.13;20.00;;;;;;;-145.18;100.00;46660.41;5057731;28;20059;-76
2022/04/15 04:53:59;;;;;;;33.97;19.50;;;;;;;-145.18;100.00;46660.41;5071125;28;20032;-76
2022/04/15 04:56:24;;;;;;;31.03;19.13;;;;;;;-145.18;100.00;46660.41;5071418;28;20082;-78
2022/04/15 04:58:50;;;;;;;28.93;17.50;;;;;;;-145.18;100.00;46660.41;5069850;28;20039;-77
2022/04/15 05:01:15;;;;;;;33.03;19.20;;;;;;;-145.18;100.00;46660.41;5069854;28;20032;-77
2022/04/15 05:03:40;;;;;;;39.40;19.77;;;;;;;-145.18;100.00;46658.44;5055668;28;20489;-77
2022/04/15 05:06:06;;;;;;;33.27;19.67;;;;;;;-145.18;100.00;46660.41;5051837;28;20028;-77
2022/04/15 05:08:31;;;;;;;30.50;17.93;;;;;;;-145.18;100.00;46660.41;5051635;28;20060;-78
2022/04/15 05:10:56;;;;;;;37.10;19.13;;;;;;;-145.18;100.00;46660.41;5051780;28;20068;-77
2022/04/15 05:13:22;;;;;;;35.30;18.27;;;;;;;-145.18;100.00;46660.41;5051438;28;20040;-76
2022/04/15 05:15:47;;;;;;;30.13;18.87;;;;;;;-145.18;100.00;46625.22;5051294;28;20105;-76
2022/04/15 05:18:14;;;;;;;29.77;17.93;;;;;;;-145.18;100.00;46625.22;5033744;28;20065;-76
2022/04/15 05:20:40;;;;;;;34.43;17.57;;;;;;;-145.18;100.00;46660.41;5065256;28;20502;-76
2022/04/15 05:23:05;;;;;;;26.87;16.93;;;;;;;-145.18;100.00;46660.41;5071137;28;20273;-77
2022/04/15 05:25:30;;;;;;;28.70;16.27;;;;;;;-145.18;100.00;46660.41;5071648;28;20396;-78
2022/04/15 05:27:58;;;;;;;28.67;18.10;;;;;;;-145.18;100.00;46660.41;5071029;28;20032;-77
2022/04/15 05:30:24;;;;;;;27.37;16.03;;;;;;;-145.18;100.00;46625.22;5071407;28;20029;-77
2022/04/15 05:32:50;;;;;;;33.27;18.07;;;;;;;-145.18;100.00;46660.41;5068790;28;20281;-78
2022/04/15 05:35:15;;;;;;;32.47;16.17;;;;;;;-145.18;100.00;46660.41;5063865;28;20293;-78
2022/04/15 05:37:40;;;;;;;30.80;16.73;;;;;;;-145.18;100.00;46625.22;5069516;28;20078;-77
2022/04/15 05:40:06;;;;;;;30.17;17.07;;;;;;;-145.18;100.00;46660.41;5071347;28;20533;-77
2022/04/15 05:42:32;;;;;;;34.93;16.73;;;;;;;-145.18;100.00;46660.41;5064844;28;20036;-77
2022/04/15 05:44:57;;;;;;;32.20;16.03;;;;;;;-145.18;100.00;46660.41;5062504;28;20288;-77
2022/04/15 05:47:22;;;;;;;25.00;16.00;;;;;;;-145.18;100.00;46623.28;5052210;28;20112;-77
2022/04/15 05:49:48;;;;;;;27.37;15.63;;;;;;;-145.18;100.00;46660.41;5070689;28;20763;-78
2022/04/15 05:52:14;;;;;;;30.83;15.27;;;;;;;-145.18;100.00;46625.22;5052916;28;20059;-78
2022/04/15 05:54:40;;;;;;;21.53;14.57;;;;;;;-145.18;100.00;46660.41;5070461;28;20115;-78
2022/04/15 05:57:05;;;;;;;20.37;14.50;;;;;;;-145.18;100.00;46623.28;5070886;28;20871;-78
2022/04/15 05:59:31;;;;;;;25.53;15.03;;;;;;;-145.18;100.00;46660.41;5070599;28;20025;-78
2022/04/15 06:01:56;;;;;;;26.60;14.93;;;;;;;-145.18;100.00;46625.22;5054935;28;20047;-77
2022/04/15 06:04:21;;;;;;;25.80;15.07;;;;;;;-145.18;100.00;46660.41;5063065;28;20055;-78
2022/04/15 06:06:47;;;;;;;30.63;14.97;;;;;;;-145.18;100.00;46660.41;5070454;28;20032;-77
2022/04/15 06:09:13;;;;;;;24.37;13.90;;;;;;;-145.18;100.00;46660.41;5061458;28;20151;-77
2022/04/15 06:11:41;;;;;;;23.10;14.97;;;;;;;-145.18;100.00;46625.22;5043206;28;20033;-78
2022/04/15 06:14:06;;;;;;;27.77;14.30;;;;;;;-145.18;100.00;46660.41;5053340;28;20111;-78
2022/04/15 06:16:33;;;;;;;22.43;13.00;;;;;;;-145.18;100.00;46621.31;5065294;28;20407;-77
2022/04/15 06:19:00;;;;;;;21.73;13.27;;;;;;;-145.18;100.00;46623.28;5058675;28;21034;-78
2022/04/15 06:21:26;;;;;;;24.67;14.03;;;;;;;-145.18;100.00;46621.31;5050423;28;20266;-78
2022/04/15 06:23:51;;;;;;;26.77;14.17;;;;;;;-145.18;100.00;46621.31;5048999;28;20769;-78
2022/04/15 06:26:16;;;;;;;23.40;14.10;;;;;;;-145.18;100.00;46623.28;5049781;28;20064;-77
2022/04/15 06:28:42;;;;;;;21.43;14.37;;;;;;;-145.18;100.00;46621.31;5049083;28;20037;-78
2022/04/15 06:31:07;;;;;;;24.40;13.50;;;;;;;-145.18;100.00;46623.28;5049911;28;20405;-77
2022/04/15 06:33:33;;;;;;;27.77;14.33;;;;;;;-145.18;100.00;46627.19;5047419;28;20033;-77
2022/04/15 06:36:01;;;;;;;28.47;14.67;;;;;;;-145.18;100.00;46621.31;5048398;28;20064;-78
2022/04/15 06:38:26;;;;;;;24.80;12.63;;;;;;;-145.18;100.00;46623.28;5049420;28;20033;-78
2022/04/15 06:40:52;;;;;;;27.70;12.23;;;;;;;-145.18;100.00;46625.22;5049875;28;20758;-78
2022/04/15 06:43:17;;;;;;;23.13;13.07;;;;;;;-145.18;100.00;46623.28;5049600;28;20075;-78
2022/04/15 06:45:43;;;;;;;23.37;13.27;;;;;;;-145.18;100.00;46625.22;5049462;28;20029;-78
2022/04/15 06:48:08;;;;;;;24.47;12.30;;;;;;;-145.18;100.00;46627.19;5030297;28;20037;-77
2022/04/15 06:50:34;;;;;;;23.83;11.53;;;;;;;-145.18;100.00;46627.19;5042810;28;20116;-78
2022/04/15 06:52:59;;;;;;;27.33;12.17;;;;;;;-145.18;100.00;46631.09;5046688;28;20373;-77
2022/04/15 06:55:25;;;;;;;17.87;11.10;;;;;;;-145.18;100.00;46627.19;5017991;28;20038;-78
2022/04/15 06:57:50;;;;;;;16.33;10.70;;;;;;;-145.18;100.00;46623.28;5036785;28;20041;-77
2022/04/15 07:00:16;;;;;;;24.23;10.97;;;;;;;-145.18;100.00;46627.19;5049726;28;20378;-77
2022/04/15 07:02:42;;;;;;;24.33;12.03;;;;;;;-145.18;100.00;46629.13;5037770;28;20041;-77
2022/04/15 07:05:09;;;;;;;20.23;10.60;;;;;;;-145.18;100.00;46625.22;5029996;28;20076;-77
2022/04/15 07:07:38;;;;;;;14.53;10.10;;;;;;;-145.18;100.00;46627.19;5029367;28;20060;-77
2022/04/15 07:10:06;;;;;;;15.60;9.50;;;;;;;-145.18;100.00;46625.22;5032472;28;20269;-77
2022/04/15 07:12:31;;;;;;;10.57;9.10;;;;;;;-145.18;100.00;46631.09;5048178;28;20397;-77
2022/04/15 07:14:57;;;;;;;20.53;9.87;;;;;;;-145.18;100.00;46631.09;5049133;28;20401;-77
2022/04/15 07:17:23;;;;;;;21.00;10.37;;;;;;;-145.18;100.00;46629.13;5049868;28;20416;-77
2022/04/15 07:19:49;;;;;;;23.83;10.27;;;;;;;-145.18;100.00;46633.06;5048495;28;20029;-77
2022/04/15 07:22:18;;;;;;;25.47;13.27;;;;;;;-145.18;100.00;46633.06;5047391;28;20266;-77
2022/04/15 07:24:44;;;;;;;18.93;11.70;;;;;;;-145.18;100.00;46631.09;5030210;28;20441;-77
2022/04/15 07:27:09;;;;;;;19.43;11.77;;;;;;;-145.18;100.00;46636.94;5042481;28;20354;-77
2022/04/15 07:29:35;;;;;;;26.80;13.00;;;;;;;-145.18;100.00;46636.94;5028337;28;20353;-77
2022/04/15 07:32:00;;;;;;;21.40;12.70;;;;;;;-145.18;100.00;46633.06;5030590;28;20548;-77
2022/04/15 07:34:26;;;;;;;23.47;13.33;;;;;;;-145.18;100.00;46640.88;5032723;28;20037;-77
2022/04/15 07:36:55;;;;;;;19.90;11.27;;;;;;;-145.18;100.00;46636.94;5032082;28;20033;-77
2022/04/15 07:39:22;;;;;;;22.10;10.93;;;;;;;-145.18;100.00;46636.94;5011770;28;20614;-78
2022/04/15 07:41:48;;;;;;;27.23;15.00;;;;;;;-145.18;100.00;46642.81;5036112;28;20310;-78
2022/04/15 07:44:14;;;;;;;27.27;13.80;;;;;;;-145.18;100.00;46640.88;5038248;28;20719;-78
2022/04/15 07:46:43;;;;;;;18.33;11.07;;;;;;;-145.18;100.00;46644.78;5035156;28;20034;-77
2022/04/15 07:49:09;;;;;;;21.57;12.13;;;;;;;-145.18;100.00;46646.72;5034768;28;20032;-78
2022/04/15 07:51:36;;;;;;;17.73;12.50;;;;;;;-145.18;100.00;46650.63;5048206;28;20297;-78
2022/04/15 07:54:03;;;;;;;17.50;11.13;;;;;;;-145.18;100.00;46654.53;5031671;28;20301;-77
2022/04/15 07:56:29;;;;;;;16.70;11.47;;;;;;;-145.18;100.00;46656.50;5035566;28;20292;-78
2022/04/15 07:58:54;;;;;;;19.03;10.93;;;;;;;-145.18;100.00;46664.31;5051704;28;20270;-78
2022/04/15 08:01:20;;;;;;;15.83;11.10;;;;;;;-145.18;100.00;46656.50;5035238;28;20415;-77
2022/04/15 08:03:47;;;;;;;14.43;11.60;;;;;;;-145.18;100.00;46656.50;5051641;28;20041;-78
2022/04/15 08:06:13;;;;;;;10.50;7.87;;;;;;;-145.18;100.00;46650.63;5034502;28;20353;-78
2022/04/15 08:08:39;;;;;;;8.50;7.43;;;;;;;-145.18;100.00;46656.50;5051993;28;20697;-78
2022/04/15 08:11:04;;;;;;;8.67;6.50;;;;;;;-145.18;100.00;46654.53;5052674;28;20308;-78
2022/04/15 08:13:30;;;;;;;11.73;7.13;;;;;;;-145.18;100.00;46650.63;5051515;28;20098;-78
2022/04/15 08:15:56;;;;;;;15.73;9.10;;;;;;;-145.18;100.00;46648.69;5052938;28;20111;-78
2022/04/15 08:18:23;;;;;;;16.00;8.80;;;;;;;-145.18;100.00;46652.59;5041099;28;20033;-78
2022/04/15 08:20:53;;;;;;;16.03;9.07;;;;;;;-145.18;100.00;46648.69;5032711;28;20266;-78
2022/04/15 08:23:19;;;;;;;12.77;8.57;;;;;;;-145.18;100.00;46644.78;5031946;28;20704;-78
2022/04/15 08:25:45;;;;;;;15.57;8.93;;;;;;;-145.18;100.00;46625.22;5032277;28;20365;-78
2022/04/15 08:28:11;;;;;;;18.60;9.97;;;;;;;-145.18;100.00;46539.28;5031851;28;20036;-78
2022/04/15 08:30:37;;;;;;;12.57;8.40;;;;;;;-145.18;100.00;46535.38;5032500;28;20309;-78
2022/04/15 08:33:05;;;;;;;14.10;7.77;;;;;;;-145.18;100.00;46541.25;5031538;28;20317;-79
2022/04/15 08:35:32;;;;;;;13.23;7.77;;;;;;;-145.18;100.00;46547.09;5031857;28;20346;-78
2022/04/15 08:37:57;;;;;;;13.30;8.10;;;;;;;-145.18;100.00;46543.19;5032647;28;20292;-78
2022/04/15 08:40:24;;;;;;;14.00;8.63;;;;;;;-145.18;100.00;46556.88;5032145;28;20267;-78
2022/04/15 08:42:50;;;;;;;10.50;7.23;;;;;;;-145.18;100.00;46562.72;5031244;28;20478;-79
2022/04/15 08:45:20;;;;;;;14.37;7.50;;;;;;;-145.18;100.00;46549.06;5032065;28;20328;-79
2022/04/15 08:47:46;;;;;;;11.30;6.93;;;;;;;-145.18;100.00;46552.97;5031703;28;20321;-79
2022/04/15 08:50:12;;;;;;;15.43;8.27;;;;;;;-145.18;100.00;46552.97;5031504;28;20263;-79
2022/04/15 08:52:37;;;;;;;12.37;8.97;;;;;;;-145.18;100.00;46554.91;5032161;28;20544;-79
2022/04/15 08:55:04;;;;;;;14.63;8.90;;;;;;;-145.18;100.00;46551.00;5031677;28;20287;-78
2022/04/15 08:57:29;;;;;;;13.13;8.33;;;;;;;-145.18;100.00;46549.06;4996885;28;20136;-79
2022/04/15 08:59:55;;;;;;;17.43;8.33;;;;;;;-145.18;100.00;46547.09;5031896;28;20818;-79
2022/04/15 09:02:35;;;;;;;12.20;8.77;;;;;;;-145.18;100.00;46547.09;5031640;28;20025;-79
2022/04/15 09:05:01;;;;;;;10.90;8.27;;;;;;;-145.18;100.00;46552.97;5031657;28;20041;-79
2022/04/15 09:07:29;;;;;;;11.97;9.00;;;;;;;-145.18;100.00;46558.81;5036388;28;20919;-79
2022/04/15 09:09:56;;;;;;;12.97;7.93;;;;;;;-145.18;100.00;46562.72;5031019;28;20354;-79
2022/04/15 09:12:26;;;;;;;13.50;7.00;;;;;;;-145.18;100.00;46566.63;5031553;28;20286;-79
2022/04/15 09:14:53;;;;;;;10.70;6.97;;;;;;;-145.18;100.00;46570.53;5049672;28;20098;-79
2022/04/15 09:17:23;;;;;;;11.63;7.43;;;;;;;-145.18;100.00;46599.84;5051653;28;20037;-77
2022/04/15 09:19:52;;;;;;;11.87;7.37;;;;;;;-145.18;100.00;46584.22;5050779;28;20086;-79
2022/04/15 09:22:17;;;;;;;9.77;6.47;;;;;;;-145.18;100.00;46590.06;5050713;28;20029;-77
2022/04/15 09:24:43;;;;;;;9.53;6.57;;;;;;;-145.18;100.00;46607.66;5050485;28;20421;-79
2022/04/15 09:27:09;;;;;;;15.53;8.10;;;;;;;-145.18;100.00;46570.53;5033590;28;20669;-79
2022/04/15 09:29:39;;;;;;;11.70;8.27;;;;;;;-145.18;100.00;46556.88;5050784;28;20129;-77
2022/04/15 09:32:06;;;;;;;8.40;7.20;;;;;;;-145.18;100.00;46584.22;5033614;28;20028;-77
2022/04/15 09:34:32;;;;;;;11.50;7.40;;;;;;;-145.18;100.00;46603.75;5050185;28;20033;-77
2022/04/15 09:36:57;;;;;;;10.13;7.10;;;;;;;-145.18;100.00;46599.84;5051328;28;20060;-77
2022/04/15 09:39:22;;;;;;;13.60;7.60;;;;;;;-145.18;100.00;46590.06;5050529;28;20049;-77
2022/04/15 09:41:56;;;;;;;12.20;7.13;;;;;;;-145.18;100.00;46570.53;5050763;28;20786;-77
2022/04/15 09:44:31;;;;;;;11.03;7.13;;;;;;;-145.18;100.00;46599.84;5045732;28;20021;-77
2022/04/15 09:46:57;;;;;;;12.90;7.47;;;;;;;-145.18;100.00;46586.16;5014962;28;20033;-77
2022/04/15 09:49:24;;;;;;;12.97;6.60;;;;;;;-145.18;100.00;46617.41;5036952;28;20025;-77
2022/04/15 09:51:52;;;;;;;11.87;6.63;;;;;;;-145.18;100.00;46625.22;5050736;28;20104;-77
2022/04/15 09:54:22;;;;;;;11.60;6.80;;;;;;;-145.18;100.00;46629.13;5032456;28;20029;-77
2022/04/15 09:56:48;;;;;;;12.50;6.80;;;;;;;-145.18;100.00;46629.13;5047363;28;20620;-77
2022/04/15 09:59:15;;;;;;;8.80;6.13;;;;;;;-145.18;100.00;46660.41;5049009;28;20040;-77
2022/04/15 10:01:45;;;;;;;9.43;6.10;;;;;;;-145.18;100.00;46797.13;5050668;28;20527;-77
2022/04/15 10:04:11;;;;;;;7.83;6.60;;;;;;;-145.18;100.00;46707.28;5049799;28;20053;-77
2022/04/15 10:06:38;;;;;;;11.77;5.70;;;;;;;-145.18;100.00;46636.94;5048849;28;20079;-77
2022/04/15 10:09:06;;;;;;;11.40;6.17;;;;;;;-145.18;100.00;46652.59;5039240;28;20035;-77
2022/04/15 10:11:35;;;;;;;6.90;5.67;;;;;;;-145.18;100.00;46648.69;5050312;28;20566;-77
2022/04/15 10:14:00;;;;;;;9.70;5.53;;;;;;;-145.18;100.00;46646.72;5028641;28;20173;-77
2022/04/15 10:16:28;;;;;;;8.00;5.37;;;;;;;-145.18;100.00;46676.03;5037061;28;20551;-78
2022/04/15 10:18:53;;;;;;;8.93;5.27;;;;;;;-145.18;100.00;46681.88;5055508;28;20036;-77
2022/04/15 10:21:19;;;;;;;10.03;5.70;;;;;;;-145.18;100.00;46644.78;5056621;28;20115;-77
2022/04/15 10:23:45;;;;;;;9.37;5.40;;;;;;;-145.18;100.00;46674.06;5051293;28;20052;-77
2022/04/15 10:26:10;;;;;;;12.13;5.67;;;;;;;-145.18;100.00;46668.22;5063689;28;20033;-77
2022/04/15 10:28:48;;;;;;;8.93;5.50;;;;;;;-145.18;100.00;46593.97;5068979;28;20538;-77
2022/04/15 10:31:16;;;;;;;8.87;5.63;;;;;;;-145.18;100.00;47162.44;5061145;28;20029;-77
2022/04/15 10:33:43;;;;;;;9.03;5.40;;;;;;;-145.18;100.00;47113.59;5069430;28;20047;-77
2022/04/15 10:36:14;;;;;;;7.07;4.90;;;;;;;-145.18;100.00;46914.34;5070568;28;20020;-77
2022/04/15 10:39:01;;;;;;;7.97;5.30;;;;;;;-145.18;100.00;46638.91;5039470;28;20389;-77
2022/04/15 10:41:27;;;;;;;7.40;5.50;;;;;;;-145.18;100.00;47121.41;5050227;28;20466;-77
2022/04/15 10:43:59;;;;;;;6.83;4.97;;;;;;;-145.18;100.00;46693.59;5048702;28;20043;-77
2022/04/15 10:46:31;;;;;;;7.90;5.23;;;;;;;-145.18;100.00;46734.63;5060192;28;20039;-77
2022/04/15 10:49:00;;;;;;;8.97;5.00;;;;;;;-145.18;100.00;47228.84;5068985;28;20111;-77
2022/04/15 10:51:30;;;;;;;7.17;5.03;;;;;;;-145.18;100.00;47289.41;5069440;28;20107;-77
2022/04/15 10:54:16;;;;;;;10.30;5.03;;;;;;;-145.18;100.00;47307.00;5061240;28;20041;-77
2022/04/15 10:57:14;;;;;;;7.93;5.18;;;;;;;-145.18;100.00;46771.75;5057201;28;20401;-78